Time;durP1;ratioP1;P1;durP2;ratioP2;P2;SDS_P1;SDS_P2;PMS_P1;PMS_P2;Temp;Humidity;BMP_temperature;BMP_pressure;BME280_temperature;BME280_humidity;BME280_pressure;Samples;Min_cycle;Max_cycle;Signal;HPM_P1;HPM_P2
2023/08/24 00:00:07;;;;;;;5.60;2.25;;;;;;;;;;2091174;28;20373;-66
2023/08/24 00:01:26;;;;;;;2.30;2.10;;;;;;;;;;2090039;28;20060;-69
2023/08/24 00:02:45;;;;;;;2.05;1.73;;;;;;;;;;2081971;28;20041;-69
2023/08/24 00:04:04;;;;;;;3.63;2.10;;;;;;;;;;2088727;28;20037;-69
2023/08/24 00:05:23;;;;;;;1.95;1.80;;;;;;;;;;2094560;28;20033;-62
2023/08/24 00:06:42;;;;;;;5.57;2.22;;;;;;;;;;2094013;28;20484;-68
2023/08/24 00:08:01;;;;;;;6.35;1.90;;;;;;;;;;2091807;28;20036;-65
2023/08/24 00:09:20;;;;;;;3.20;2.05;;;;;;;;;;2082717;28;20112;-64
2023/08/24 00:10:43;;;;;;;3.33;2.05;;;;;;;;;;2088991;28;20111;-70
2023/08/24 00:12:02;;;;;;;7.38;2.30;;;;;;;;;;2092226;28;20021;-69
2023/08/24 00:13:21;;;;;;;3.03;1.85;;;;;;;;;;2092328;28;20025;-69
2023/08/24 00:14:40;;;;;;;3.53;2.03;;;;;;;;;;2081507;28;20029;-68
2023/08/24 00:15:59;;;;;;;3.58;2.17;;;;;;;;;;2089488;28;20036;-69
2023/08/24 00:17:18;;;;;;;1.70;1.60;;;;;;;;;;2092494;28;20048;-70
2023/08/24 00:18:37;;;;;;;2.22;1.98;;;;;;;;;;2087711;28;20049;-69
2023/08/24 00:19:56;;;;;;;2.97;1.80;;;;;;;;;;2090582;28;20094;-64
2023/08/24 00:21:22;;;;;;;2.30;1.73;;;;;;;;;;2090619;28;20016;-69
2023/08/24 00:22:41;;;;;;;4.75;2.95;;;;;;;;;;2091173;28;20017;-68
2023/08/24 00:24:00;;;;;;;2.00;1.80;;;;;;;;;;2092325;28;20029;-69
2023/08/24 00:25:19;;;;;;;3.05;1.92;;;;;;;;;;2088672;28;20822;-66
2023/08/24 00:26:38;;;;;;;2.00;1.63;;;;;;;;;;2092352;28;20385;-69
2023/08/24 00:27:57;;;;;;;2.05;1.85;;;;;;;;;;2089677;28;20032;-69
2023/08/24 00:29:16;;;;;;;2.83;1.70;;;;;;;;;;2087792;28;20036;-71
2023/08/24 00:30:35;;;;;;;3.40;1.77;;;;;;;;;;2082271;28;20033;-69
2023/08/24 00:31:54;;;;;;;1.70;1.60;;;;;;;;;;2089513;28;20050;-66
2023/08/24 00:33:13;;;;;;;2.17;1.70;;;;;;;;;;2091910;28;20024;-69
2023/08/24 00:34:32;;;;;;;2.25;1.80;;;;;;;;;;2089501;28;20029;-69
2023/08/24 00:35:51;;;;;;;3.58;2.20;;;;;;;;;;2091691;28;20052;-68
2023/08/24 00:37:10;;;;;;;3.40;1.90;;;;;;;;;;2093431;28;20032;-69
2023/08/24 00:38:29;;;;;;;2.42;2.10;;;;;;;;;;2090379;28;20032;-66
2023/08/24 00:39:48;;;;;;;4.15;1.95;;;;;;;;;;2093930;28;20029;-70
2023/08/24 00:41:07;;;;;;;2.95;1.92;;;;;;;;;;2093601;28;20029;-69
2023/08/24 00:42:26;;;;;;;2.92;2.25;;;;;;;;;;2093808;28;20033;-67
2023/08/24 00:43:45;;;;;;;6.68;2.10;;;;;;;;;;2092829;28;20021;-69
2023/08/24 00:45:04;;;;;;;3.42;1.83;;;;;;;;;;2092704;28;20024;-64
2023/08/24 00:46:26;;;;;;;4.95;2.30;;;;;;;;;;2085249;28;20021;-64
2023/08/24 00:47:46;;;;;;;3.10;1.77;;;;;;;;;;2089083;28;20026;-69
2023/08/24 00:49:06;;;;;;;3.10;1.88;;;;;;;;;;2082762;28;20504;-69
2023/08/24 00:50:25;;;;;;;2.22;2.03;;;;;;;;;;2088614;28;20036;-69
2023/08/24 00:51:44;;;;;;;2.35;2.15;;;;;;;;;;2093438;28;20025;-67
2023/08/24 00:53:03;;;;;;;3.75;2.22;;;;;;;;;;2093861;28;20020;-71
2023/08/24 00:54:22;;;;;;;2.50;1.90;;;;;;;;;;2090222;28;20532;-69
2023/08/24 00:55:41;;;;;;;4.53;2.03;;;;;;;;;;2093716;28;20032;-64
2023/08/24 00:57:00;;;;;;;3.13;1.90;;;;;;;;;;2094544;28;20028;-68
2023/08/24 00:58:20;;;;;;;2.33;2.22;;;;;;;;;;2091103;28;20028;-69
2023/08/24 00:59:39;;;;;;;3.65;1.95;;;;;;;;;;2093622;28;20044;-72
2023/08/24 01:00:58;;;;;;;2.00;1.90;;;;;;;;;;2091709;28;20151;-72
2023/08/24 01:02:18;;;;;;;4.63;2.40;;;;;;;;;;2091591;28;20516;-69
2023/08/24 01:03:37;;;;;;;3.95;2.05;;;;;;;;;;2090805;28;20021;-65
2023/08/24 01:04:56;;;;;;;2.28;2.08;;;;;;;;;;2093782;28;20025;-72
2023/08/24 01:06:15;;;;;;;3.20;2.00;;;;;;;;;;2092772;28;20025;-68
2023/08/24 01:07:36;;;;;;;5.03;2.28;;;;;;;;;;2092827;28;20024;-65
2023/08/24 01:08:55;;;;;;;7.30;2.40;;;;;;;;;;2092780;28;20020;-67
2023/08/24 01:10:14;;;;;;;2.88;2.53;;;;;;;;;;2093323;28;20056;-68
2023/08/24 01:11:33;;;;;;;3.80;2.30;;;;;;;;;;2094898;28;20021;-69
2023/08/24 01:12:55;;;;;;;3.75;2.45;;;;;;;;;;2093113;28;20025;-70
2023/08/24 01:14:20;;;;;;;3.00;2.50;;;;;;;;;;2093341;28;20380;-69
2023/08/24 01:15:39;;;;;;;2.90;1.88;;;;;;;;;;2095308;28;20028;-69
2023/08/24 01:17:01;;;;;;;2.90;2.25;;;;;;;;;;2092888;28;20025;-69
2023/08/24 01:18:21;;;;;;;2.17;2.00;;;;;;;;;;2090400;28;20033;-66
2023/08/24 01:19:44;;;;;;;2.53;2.13;;;;;;;;;;2093516;28;20032;-71
2023/08/24 01:21:04;;;;;;;2.88;2.30;;;;;;;;;;2093527;28;20107;-69
2023/08/24 01:22:31;;;;;;;4.38;2.90;;;;;;;;;;2093567;28;20111;-70
2023/08/24 01:23:59;;;;;;;3.40;2.00;;;;;;;;;;2094838;28;20112;-70
2023/08/24 01:25:30;;;;;;;2.70;2.13;;;;;;;;;;2093752;28;20114;-70
2023/08/24 01:26:50;;;;;;;2.95;2.45;;;;;;;;;;2093573;28;20040;-70
2023/08/24 01:28:12;;;;;;;3.88;3.00;;;;;;;;;;2092222;28;20025;-70
2023/08/24 01:29:32;;;;;;;4.00;2.70;;;;;;;;;;2094884;28;20103;-65
2023/08/24 01:30:51;;;;;;;5.22;3.42;;;;;;;;;;2094110;28;20070;-69
2023/08/24 01:32:11;;;;;;;3.38;3.13;;;;;;;;;;2093917;28;20041;-70
2023/08/24 01:33:30;;;;;;;3.00;2.50;;;;;;;;;;2094264;28;20028;-69
2023/08/24 01:34:49;;;;;;;3.45;2.42;;;;;;;;;;2093927;28;20040;-69
2023/08/24 01:36:09;;;;;;;3.03;2.33;;;;;;;;;;2093695;28;20401;-69
2023/08/24 01:37:28;;;;;;;3.33;2.30;;;;;;;;;;2095157;28;20028;-69
2023/08/24 01:39:06;;;;;;;3.78;2.83;;;;;;;;;;2093205;28;20508;-69
2023/08/24 01:40:31;;;;;;;3.13;2.53;;;;;;;;;;2093550;28;20072;-70
2023/08/24 01:41:52;;;;;;;2.92;2.40;;;;;;;;;;2093923;28;20119;-70
2023/08/24 01:43:13;;;;;;;4.72;2.70;;;;;;;;;;2087566;28;20033;-69
2023/08/24 01:44:34;;;;;;;3.35;2.13;;;;;;;;;;2090791;28;20025;-69
2023/08/24 01:45:54;;;;;;;2.55;2.35;;;;;;;;;;2093039;28;20025;-69
2023/08/24 01:47:14;;;;;;;4.20;2.75;;;;;;;;;;2092624;28;20056;-64
2023/08/24 01:48:34;;;;;;;3.83;2.60;;;;;;;;;;2093653;28;20384;-69
2023/08/24 01:49:53;;;;;;;2.83;2.30;;;;;;;;;;2093165;28;20029;-66
2023/08/24 01:51:13;;;;;;;3.13;2.85;;;;;;;;;;2092888;28;20029;-66
2023/08/24 01:52:32;;;;;;;3.38;2.63;;;;;;;;;;2091440;28;20111;-69
2023/08/24 01:53:51;;;;;;;6.75;3.00;;;;;;;;;;2093282;28;20493;-69
2023/08/24 01:55:11;;;;;;;3.00;2.75;;;;;;;;;;2093971;28;20067;-66
2023/08/24 01:56:30;;;;;;;5.32;2.95;;;;;;;;;;2087690;28;20557;-69
2023/08/24 01:57:49;;;;;;;3.88;3.40;;;;;;;;;;2094590;28;21185;-68
2023/08/24 01:59:08;;;;;;;4.63;2.70;;;;;;;;;;2094923;28;20104;-67
2023/08/24 02:00:28;;;;;;;5.95;3.58;;;;;;;;;;2092781;28;20421;-69
2023/08/24 02:01:47;;;;;;;9.15;2.80;;;;;;;;;;2086360;28;20028;-68
2023/08/24 02:03:06;;;;;;;4.93;3.05;;;;;;;;;;2089629;28;20025;-66
2023/08/24 02:04:25;;;;;;;4.65;3.35;;;;;;;;;;2091793;28;20032;-69
2023/08/24 02:05:44;;;;;;;4.18;2.63;;;;;;;;;;2093538;28;20029;-69
2023/08/24 02:07:03;;;;;;;4.38;3.15;;;;;;;;;;2092826;28;20021;-68
2023/08/24 02:08:22;;;;;;;3.47;2.72;;;;;;;;;;2094289;28;20111;-70
2023/08/24 02:09:41;;;;;;;6.95;3.00;;;;;;;;;;2092829;28;20439;-69
2023/08/24 02:11:00;;;;;;;6.88;2.28;;;;;;;;;;2084037;28;20040;-66
2023/08/24 02:12:18;;;;;;;4.75;2.60;;;;;;;;;;2090311;28;20444;-69
2023/08/24 02:13:38;;;;;;;3.55;2.50;;;;;;;;;;2092124;28;20573;-68
2023/08/24 02:14:56;;;;;;;4.65;2.70;;;;;;;;;;2091771;28;20684;-69
2023/08/24 02:16:15;;;;;;;2.30;2.10;;;;;;;;;;2093552;28;20036;-68
2023/08/24 02:17:34;;;;;;;4.18;2.65;;;;;;;;;;2092315;28;20037;-69
2023/08/24 02:18:53;;;;;;;3.67;2.33;;;;;;;;;;2092145;28;20150;-66
2023/08/24 02:20:12;;;;;;;3.85;1.90;;;;;;;;;;2095078;28;20397;-68
2023/08/24 02:21:31;;;;;;;5.72;2.40;;;;;;;;;;2092429;28;20417;-70
2023/08/24 02:22:50;;;;;;;2.50;2.30;;;;;;;;;;2092836;28;20024;-64
2023/08/24 02:24:09;;;;;;;4.15;2.13;;;;;;;;;;2094017;28;20020;-67
2023/08/24 02:25:28;;;;;;;2.85;2.35;;;;;;;;;;2084467;28;20045;-69
2023/08/24 02:26:47;;;;;;;5.15;2.38;;;;;;;;;;2090298;28;20029;-69
2023/08/24 02:28:06;;;;;;;2.63;2.05;;;;;;;;;;2090719;28;20481;-67
2023/08/24 02:29:25;;;;;;;3.17;2.58;;;;;;;;;;2093719;28;20120;-69
2023/08/24 02:30:44;;;;;;;2.05;1.88;;;;;;;;;;2088418;28;20021;-66
2023/08/24 02:32:03;;;;;;;4.18;2.13;;;;;;;;;;2093097;28;20048;-71
2023/08/24 02:33:22;;;;;;;2.97;2.03;;;;;;;;;;2092849;28;20025;-70
2023/08/24 02:34:41;;;;;;;2.25;2.08;;;;;;;;;;2092036;28;20036;-70
2023/08/24 02:36:00;;;;;;;2.40;2.20;;;;;;;;;;2092745;28;20070;-62
2023/08/24 02:37:19;;;;;;;2.38;1.90;;;;;;;;;;2094302;28;20021;-69
2023/08/24 02:38:38;;;;;;;6.13;2.38;;;;;;;;;;2094467;28;20033;-70
2023/08/24 02:39:57;;;;;;;4.28;2.10;;;;;;;;;;2095370;28;20091;-66
2023/08/24 02:41:16;;;;;;;3.22;2.13;;;;;;;;;;2086230;28;20041;-64
2023/08/24 02:42:35;;;;;;;3.72;2.20;;;;;;;;;;2087065;28;20036;-69
2023/08/24 02:43:54;;;;;;;4.20;2.50;;;;;;;;;;2092904;28;20052;-70
2023/08/24 02:45:13;;;;;;;2.75;2.20;;;;;;;;;;2091968;28;20033;-68
2023/08/24 02:46:32;;;;;;;2.15;1.98;;;;;;;;;;2092018;28;20024;-70
2023/08/24 02:47:51;;;;;;;2.33;2.13;;;;;;;;;;2082772;28;20025;-71
2023/08/24 02:49:10;;;;;;;3.10;2.17;;;;;;;;;;2089966;28;20021;-69
2023/08/24 02:50:29;;;;;;;2.65;2.40;;;;;;;;;;2091895;28;20032;-66
2023/08/24 02:51:48;;;;;;;2.08;1.95;;;;;;;;;;2091557;28;20021;-70
2023/08/24 02:53:07;;;;;;;3.33;2.00;;;;;;;;;;2092811;28;20108;-65
2023/08/24 02:54:26;;;;;;;3.78;2.42;;;;;;;;;;2090837;28;20021;-69
2023/08/24 02:55:45;;;;;;;2.63;2.08;;;;;;;;;;2094420;28;20661;-69
2023/08/24 02:57:04;;;;;;;5.75;2.33;;;;;;;;;;2093721;28;20024;-70
2023/08/24 02:58:23;;;;;;;4.70;2.45;;;;;;;;;;2092350;28;20036;-67
2023/08/24 02:59:44;;;;;;;2.45;2.10;;;;;;;;;;2093253;28;20045;-66
2023/08/24 03:01:07;;;;;;;2.80;2.13;;;;;;;;;;2092752;28;20033;-70
2023/08/24 03:02:25;;;;;;;4.20;2.20;;;;;;;;;;2094043;28;20049;-68
2023/08/24 03:03:44;;;;;;;2.67;2.47;;;;;;;;;;2092915;28;20029;-67
2023/08/24 03:05:03;;;;;;;2.72;2.50;;;;;;;;;;2083320;28;20431;-70
2023/08/24 03:06:24;;;;;;;2.33;2.10;;;;;;;;;;2089291;28;20111;-66
2023/08/24 03:07:42;;;;;;;2.40;2.20;;;;;;;;;;2093693;28;20024;-69
2023/08/24 03:09:04;;;;;;;2.50;2.30;;;;;;;;;;2093033;28;20021;-70
2023/08/24 03:10:22;;;;;;;2.17;1.98;;;;;;;;;;2093948;28;20029;-65
2023/08/24 03:11:41;;;;;;;3.00;2.17;;;;;;;;;;2092181;28;20052;-69
2023/08/24 03:13:00;;;;;;;2.10;1.88;;;;;;;;;;2093230;28;21246;-69
2023/08/24 03:14:20;;;;;;;6.35;2.20;;;;;;;;;;2092880;28;20032;-69
2023/08/24 03:15:39;;;;;;;2.50;2.05;;;;;;;;;;2092000;28;20036;-69
2023/08/24 03:16:58;;;;;;;1.80;1.70;;;;;;;;;;2092401;28;20604;-69
2023/08/24 03:18:17;;;;;;;4.05;2.20;;;;;;;;;;2090984;28;20119;-66
2023/08/24 03:19:35;;;;;;;3.42;2.63;;;;;;;;;;2092331;28;20505;-69
2023/08/24 03:20:55;;;;;;;4.28;2.17;;;;;;;;;;2090237;28;20040;-69
2023/08/24 03:22:14;;;;;;;2.13;1.98;;;;;;;;;;2092658;28;20025;-69
2023/08/24 03:23:33;;;;;;;5.90;2.60;;;;;;;;;;2093292;28;20472;-69
2023/08/24 03:24:52;;;;;;;4.10;2.28;;;;;;;;;;2092548;28;20147;-69
2023/08/24 03:26:11;;;;;;;3.05;2.50;;;;;;;;;;2091278;28;20025;-66
2023/08/24 03:27:30;;;;;;;3.00;2.35;;;;;;;;;;2091907;28;20029;-69
2023/08/24 03:28:49;;;;;;;3.75;2.38;;;;;;;;;;2084511;28;20029;-69
2023/08/24 03:30:09;;;;;;;2.90;2.05;;;;;;;;;;2089199;28;20025;-69
2023/08/24 03:31:28;;;;;;;4.50;2.38;;;;;;;;;;2092776;28;20028;-68
2023/08/24 03:32:48;;;;;;;2.75;2.45;;;;;;;;;;2093444;28;20525;-68
2023/08/24 03:34:06;;;;;;;3.15;2.10;;;;;;;;;;2091498;28;20662;-69
2023/08/24 03:35:25;;;;;;;2.53;1.73;;;;;;;;;;2091895;28;20024;-69
2023/08/24 03:36:44;;;;;;;4.07;2.20;;;;;;;;;;2092844;28;20540;-69
2023/08/24 03:38:04;;;;;;;2.63;1.90;;;;;;;;;;2091343;28;20107;-62
2023/08/24 03:39:22;;;;;;;7.22;2.30;;;;;;;;;;2093051;28;20044;-70
2023/08/24 03:40:42;;;;;;;2.60;1.92;;;;;;;;;;2092523;28;20029;-63
2023/08/24 03:42:01;;;;;;;5.93;2.03;;;;;;;;;;2093062;28;20100;-66
2023/08/24 03:43:20;;;;;;;2.85;1.92;;;;;;;;;;2092568;28;20046;-68
2023/08/24 03:44:39;;;;;;;2.28;2.08;;;;;;;;;;2084536;28;20029;-68
2023/08/24 03:45:57;;;;;;;2.92;1.83;;;;;;;;;;2088401;28;20027;-62
2023/08/24 03:47:17;;;;;;;3.13;1.92;;;;;;;;;;2092388;28;20147;-69
2023/08/24 03:48:36;;;;;;;2.58;1.98;;;;;;;;;;2092177;28;20040;-69
2023/08/24 03:49:55;;;;;;;3.13;2.45;;;;;;;;;;2091893;28;20024;-68
2023/08/24 03:51:14;;;;;;;4.45;2.10;;;;;;;;;;2093554;28;20114;-68
2023/08/24 03:52:33;;;;;;;2.63;2.13;;;;;;;;;;2080706;28;20076;-69
2023/08/24 03:53:52;;;;;;;2.90;1.83;;;;;;;;;;2084102;28;20032;-68
2023/08/24 03:55:11;;;;;;;2.63;2.25;;;;;;;;;;2088700;28;20040;-69
2023/08/24 03:56:30;;;;;;;6.38;2.30;;;;;;;;;;2092370;28;20045;-71
2023/08/24 03:57:49;;;;;;;2.10;1.90;;;;;;;;;;2091258;28;20032;-68
2023/08/24 03:59:08;;;;;;;5.82;2.63;;;;;;;;;;2092491;28;20063;-68
2023/08/24 04:00:27;;;;;;;3.67;2.30;;;;;;;;;;2091563;28;20057;-68
2023/08/24 04:01:46;;;;;;;4.65;2.25;;;;;;;;;;2093046;28;20041;-67
2023/08/24 04:03:05;;;;;;;2.20;2.00;;;;;;;;;;2092454;28;20021;-68
2023/08/24 04:04:24;;;;;;;3.83;2.30;;;;;;;;;;2093402;28;20028;-68
2023/08/24 04:05:43;;;;;;;13.27;2.55;;;;;;;;;;2093425;28;20021;-68
2023/08/24 04:07:02;;;;;;;2.22;2.03;;;;;;;;;;2090585;28;20024;-68
2023/08/24 04:08:21;;;;;;;6.00;2.72;;;;;;;;;;2089930;28;20028;-68
2023/08/24 04:09:41;;;;;;;4.97;2.10;;;;;;;;;;2088316;28;20036;-67
2023/08/24 04:10:59;;;;;;;5.78;2.42;;;;;;;;;;2089698;28;20029;-69
2023/08/24 04:12:18;;;;;;;5.05;2.40;;;;;;;;;;2091561;28;20032;-67
2023/08/24 04:13:38;;;;;;;3.47;1.90;;;;;;;;;;2090846;28;20029;-67
2023/08/24 04:14:59;;;;;;;2.95;2.20;;;;;;;;;;2088810;28;20029;-66
2023/08/24 04:16:18;;;;;;;3.20;2.08;;;;;;;;;;2087397;28;20054;-68
2023/08/24 04:17:37;;;;;;;3.72;2.20;;;;;;;;;;2090616;28;20119;-67
2023/08/24 04:18:56;;;;;;;4.65;2.33;;;;;;;;;;2084832;28;20440;-69
2023/08/24 04:20:15;;;;;;;3.13;2.50;;;;;;;;;;2088261;28;20076;-69
2023/08/24 04:21:34;;;;;;;3.67;2.22;;;;;;;;;;2091385;28;20408;-68
2023/08/24 04:22:54;;;;;;;5.32;2.30;;;;;;;;;;2092958;28;20046;-69
2023/08/24 04:24:13;;;;;;;3.47;2.15;;;;;;;;;;2083995;28;20029;-69
2023/08/24 04:25:32;;;;;;;2.58;2.38;;;;;;;;;;2083792;28;20119;-64
2023/08/24 04:26:51;;;;;;;2.67;2.30;;;;;;;;;;2089175;28;20029;-69
2023/08/24 04:28:10;;;;;;;4.72;2.53;;;;;;;;;;2090142;28;20033;-70
2023/08/24 04:29:29;;;;;;;5.72;2.05;;;;;;;;;;2093634;28;20025;-70
2023/08/24 04:30:57;;;;;;;9.45;3.10;;;;;;;;;;2090029;28;20330;-70
2023/08/24 04:32:16;;;;;;;3.15;1.90;;;;;;;;;;2089201;28;20044;-69
2023/08/24 04:33:35;;;;;;;2.30;2.10;;;;;;;;;;2092069;28;20052;-69
2023/08/24 04:34:54;;;;;;;5.18;2.33;;;;;;;;;;2093731;28;20405;-68
2023/08/24 04:36:13;;;;;;;3.35;2.25;;;;;;;;;;2094982;28;20111;-70
2023/08/24 04:37:32;;;;;;;3.65;2.28;;;;;;;;;;2092495;28;20021;-61
2023/08/24 04:38:51;;;;;;;3.17;2.15;;;;;;;;;;2085280;28;20029;-70
2023/08/24 04:40:11;;;;;;;3.17;2.00;;;;;;;;;;2092166;28;20033;-69
2023/08/24 04:41:30;;;;;;;3.42;2.25;;;;;;;;;;2092429;28;20036;-71
2023/08/24 04:42:48;;;;;;;2.90;2.00;;;;;;;;;;2088448;28;21010;-66
2023/08/24 04:44:08;;;;;;;3.03;2.08;;;;;;;;;;2092673;28;20024;-68
2023/08/24 04:45:26;;;;;;;3.17;1.90;;;;;;;;;;2091181;28;20028;-66
2023/08/24 04:46:45;;;;;;;3.65;2.08;;;;;;;;;;2092524;28;20119;-70
2023/08/24 04:48:04;;;;;;;2.83;2.40;;;;;;;;;;2093801;28;20386;-70
2023/08/24 04:49:23;;;;;;;5.22;2.22;;;;;;;;;;2092612;28;20409;-68
2023/08/24 04:50:43;;;;;;;2.30;2.08;;;;;;;;;;2091520;28;20032;-69
2023/08/24 04:52:02;;;;;;;3.08;2.20;;;;;;;;;;2090006;28;20056;-68
2023/08/24 04:53:21;;;;;;;3.50;2.35;;;;;;;;;;2090780;28;20033;-66
2023/08/24 04:54:40;;;;;;;4.85;1.98;;;;;;;;;;2093541;28;20021;-72
2023/08/24 04:55:59;;;;;;;2.28;2.08;;;;;;;;;;2092051;28;20021;-67
2023/08/24 04:57:19;;;;;;;2.00;1.75;;;;;;;;;;2091354;28;20500;-69
2023/08/24 04:58:37;;;;;;;6.15;2.17;;;;;;;;;;2093148;28;20033;-69
2023/08/24 04:59:57;;;;;;;4.57;2.53;;;;;;;;;;2090503;28;20041;-69
2023/08/24 05:01:16;;;;;;;4.07;2.08;;;;;;;;;;2092539;28;20126;-69
2023/08/24 05:02:35;;;;;;;4.57;2.22;;;;;;;;;;2092265;28;20029;-60
2023/08/24 05:03:54;;;;;;;2.70;2.03;;;;;;;;;;2091449;28;20497;-64
2023/08/24 05:05:16;;;;;;;3.53;2.30;;;;;;;;;;2092418;28;20412;-68
2023/08/24 05:06:35;;;;;;;8.30;2.65;;;;;;;;;;2090539;28;20036;-67
2023/08/24 05:07:54;;;;;;;5.95;2.30;;;;;;;;;;2090898;28;20037;-68
2023/08/24 05:09:13;;;;;;;3.75;2.20;;;;;;;;;;2092097;28;20564;-63
2023/08/24 05:10:33;;;;;;;3.22;2.28;;;;;;;;;;2090515;28;20020;-69
2023/08/24 05:11:52;;;;;;;3.95;1.98;;;;;;;;;;2091863;28;20021;-69
2023/08/24 05:13:11;;;;;;;6.38;2.08;;;;;;;;;;2089137;28;20033;-70
2023/08/24 05:14:32;;;;;;;3.63;2.10;;;;;;;;;;2090536;28;20033;-66
2023/08/24 05:15:51;;;;;;;4.53;2.03;;;;;;;;;;2089106;28;20033;-71
2023/08/24 05:17:10;;;;;;;4.90;2.03;;;;;;;;;;2090946;28;20033;-70
2023/08/24 05:18:29;;;;;;;4.75;2.47;;;;;;;;;;2092894;28;20115;-68
2023/08/24 05:19:51;;;;;;;4.72;2.22;;;;;;;;;;2092275;28;20045;-68
2023/08/24 05:21:10;;;;;;;5.50;2.10;;;;;;;;;;2092410;28;20060;-69
2023/08/24 05:22:29;;;;;;;3.38;2.17;;;;;;;;;;2091506;28;20036;-70
2023/08/24 05:23:48;;;;;;;2.22;1.77;;;;;;;;;;2090368;28;20017;-69
2023/08/24 05:25:07;;;;;;;5.00;2.45;;;;;;;;;;2091389;28;20527;-65
2023/08/24 05:26:26;;;;;;;18.83;3.47;;;;;;;;;;2093898;28;20057;-70
2023/08/24 05:27:45;;;;;;;4.30;2.72;;;;;;;;;;2089898;28;20025;-70
2023/08/24 05:29:04;;;;;;;5.05;2.40;;;;;;;;;;2089894;28;21427;-69
2023/08/24 05:30:24;;;;;;;3.13;2.35;;;;;;;;;;2093031;28;20037;-68
2023/08/24 05:31:42;;;;;;;4.43;2.17;;;;;;;;;;2090504;28;20066;-67
2023/08/24 05:33:01;;;;;;;3.50;2.25;;;;;;;;;;2093915;28;20033;-70
2023/08/24 05:34:20;;;;;;;6.18;2.42;;;;;;;;;;2092700;28;20028;-66
2023/08/24 05:35:39;;;;;;;6.47;2.40;;;;;;;;;;2090519;28;20057;-66
2023/08/24 05:36:58;;;;;;;5.80;2.40;;;;;;;;;;2092106;28;20020;-69
2023/08/24 05:38:18;;;;;;;2.38;2.15;;;;;;;;;;2093799;28;20112;-62
2023/08/24 05:39:38;;;;;;;3.92;2.30;;;;;;;;;;2096538;28;20028;-64
2023/08/24 05:40:57;;;;;;;5.57;2.58;;;;;;;;;;2092563;28;20343;-70
2023/08/24 05:42:16;;;;;;;9.98;2.33;;;;;;;;;;2089836;28;20089;-69
2023/08/24 05:43:34;;;;;;;4.93;2.20;;;;;;;;;;2094996;28;20025;-67
2023/08/24 05:44:54;;;;;;;5.43;2.30;;;;;;;;;;2087617;28;20029;-70
2023/08/24 05:46:13;;;;;;;3.95;2.53;;;;;;;;;;2090408;28;20037;-69
2023/08/24 05:47:32;;;;;;;3.10;2.40;;;;;;;;;;2092609;28;20403;-69
2023/08/24 05:48:51;;;;;;;4.38;2.15;;;;;;;;;;2090737;28;20549;-70
2023/08/24 05:50:11;;;;;;;5.90;2.10;;;;;;;;;;2090328;28;20037;-70
2023/08/24 05:51:30;;;;;;;3.78;2.20;;;;;;;;;;2093730;28;20032;-64
2023/08/24 05:52:49;;;;;;;4.80;2.55;;;;;;;;;;2090988;28;20033;-64
2023/08/24 05:54:08;;;;;;;6.68;2.50;;;;;;;;;;2084291;28;20037;-64
2023/08/24 05:55:27;;;;;;;6.82;2.40;;;;;;;;;;2087393;28;20667;-72
2023/08/24 05:56:46;;;;;;;4.55;2.30;;;;;;;;;;2092292;28;20036;-70
2023/08/24 05:58:05;;;;;;;2.58;2.30;;;;;;;;;;2092695;28;20025;-66
2023/08/24 05:59:24;;;;;;;6.45;2.33;;;;;;;;;;2092343;28;20037;-66
2023/08/24 06:00:43;;;;;;;3.08;1.92;;;;;;;;;;2085942;28;20033;-70
2023/08/24 06:02:02;;;;;;;5.43;2.25;;;;;;;;;;2091654;28;20033;-69
2023/08/24 06:03:21;;;;;;;4.38;2.42;;;;;;;;;;2092619;28;20459;-70
2023/08/24 06:04:40;;;;;;;6.60;2.25;;;;;;;;;;2089155;28;20127;-70
2023/08/24 06:06:03;;;;;;;5.95;2.47;;;;;;;;;;2090338;28;20485;-70
2023/08/24 06:07:22;;;;;;;5.82;2.63;;;;;;;;;;2093773;28;20074;-70
2023/08/24 06:08:41;;;;;;;4.78;2.42;;;;;;;;;;2085062;28;20033;-70
2023/08/24 06:10:01;;;;;;;4.95;2.08;;;;;;;;;;2086226;28;20032;-70
2023/08/24 06:11:20;;;;;;;6.65;2.65;;;;;;;;;;2092038;28;20841;-70
2023/08/24 06:12:39;;;;;;;4.10;2.10;;;;;;;;;;2091855;28;20540;-60
2023/08/24 06:13:58;;;;;;;5.90;2.63;;;;;;;;;;2093727;28;20040;-61
2023/08/24 06:15:19;;;;;;;3.95;2.60;;;;;;;;;;2092297;28;20033;-60
2023/08/24 06:16:38;;;;;;;6.68;2.20;;;;;;;;;;2083979;28;20037;-60
2023/08/24 06:17:58;;;;;;;3.97;2.00;;;;;;;;;;2090129;28;20025;-59
2023/08/24 06:19:17;;;;;;;2.78;2.38;;;;;;;;;;2092779;28;20036;-60
2023/08/24 06:20:36;;;;;;;3.88;2.20;;;;;;;;;;2094620;28;20495;-59
2023/08/24 06:21:56;;;;;;;4.75;2.47;;;;;;;;;;2090127;28;20123;-61
2023/08/24 06:23:18;;;;;;;3.55;2.30;;;;;;;;;;2093675;28;20076;-59
2023/08/24 06:24:37;;;;;;;5.68;2.60;;;;;;;;;;2094578;28;20033;-59
2023/08/24 06:25:56;;;;;;;3.95;2.30;;;;;;;;;;2093650;28;20025;-60
2023/08/24 06:27:15;;;;;;;5.32;2.40;;;;;;;;;;2092684;28;20410;-60
2023/08/24 06:28:34;;;;;;;5.03;2.47;;;;;;;;;;2092202;28;20017;-59
2023/08/24 06:29:53;;;;;;;10.77;3.05;;;;;;;;;;2090402;28;20509;-59
2023/08/24 06:31:11;;;;;;;5.30;2.47;;;;;;;;;;2094582;28;20128;-59
2023/08/24 06:32:30;;;;;;;6.10;2.55;;;;;;;;;;2092600;28;20489;-60
2023/08/24 06:33:49;;;;;;;5.43;2.70;;;;;;;;;;2093626;28;20036;-59
2023/08/24 06:35:08;;;;;;;7.43;2.30;;;;;;;;;;2092121;28;20107;-59
2023/08/24 06:36:28;;;;;;;5.32;2.17;;;;;;;;;;2092773;28;20036;-61
2023/08/24 06:37:47;;;;;;;7.07;2.42;;;;;;;;;;2092273;28;20435;-61
2023/08/24 06:39:06;;;;;;;8.30;2.58;;;;;;;;;;2092685;28;20040;-60
2023/08/24 06:40:25;;;;;;;4.38;2.30;;;;;;;;;;2090563;28;20551;-59
2023/08/24 06:41:44;;;;;;;5.57;2.65;;;;;;;;;;2093576;28;20025;-60
2023/08/24 06:43:04;;;;;;;5.43;2.80;;;;;;;;;;2094278;28;20037;-59
2023/08/24 06:44:23;;;;;;;9.13;2.80;;;;;;;;;;2084203;28;20021;-59
2023/08/24 06:45:43;;;;;;;3.92;2.25;;;;;;;;;;2088745;28;20041;-59
2023/08/24 06:47:02;;;;;;;3.53;2.22;;;;;;;;;;2093934;28;20473;-59
2023/08/24 06:48:22;;;;;;;6.20;3.00;;;;;;;;;;2094848;28;20486;-61
2023/08/24 06:49:40;;;;;;;2.10;1.90;;;;;;;;;;2093993;28;20021;-60
2023/08/24 06:51:00;;;;;;;6.18;2.50;;;;;;;;;;2093246;28;20477;-59
2023/08/24 06:52:19;;;;;;;7.70;2.20;;;;;;;;;;2094040;28;20036;-59
2023/08/24 06:53:38;;;;;;;7.50;2.55;;;;;;;;;;2092573;28;20020;-61
2023/08/24 06:54:57;;;;;;;6.72;2.45;;;;;;;;;;2093507;28;20029;-61
2023/08/24 06:56:17;;;;;;;4.03;2.45;;;;;;;;;;2092671;28;20457;-59
2023/08/24 06:57:36;;;;;;;5.57;2.80;;;;;;;;;;2090564;28;20060;-60
2023/08/24 06:58:55;;;;;;;3.97;2.75;;;;;;;;;;2083682;28;20024;-60
2023/08/24 07:00:15;;;;;;;5.22;2.80;;;;;;;;;;2088782;28;20049;-60
2023/08/24 07:01:34;;;;;;;8.00;3.03;;;;;;;;;;2092448;28;20280;-60
2023/08/24 07:02:53;;;;;;;3.63;2.22;;;;;;;;;;2092846;28;20013;-60
2023/08/24 07:04:11;;;;;;;6.55;2.25;;;;;;;;;;2093220;28;20116;-60
2023/08/24 07:05:31;;;;;;;4.53;2.42;;;;;;;;;;2084494;28;20849;-61
2023/08/24 07:06:51;;;;;;;5.45;2.67;;;;;;;;;;2089302;28;20468;-59
2023/08/24 07:08:09;;;;;;;4.35;2.85;;;;;;;;;;2093155;28;20597;-58
2023/08/24 07:09:29;;;;;;;3.58;1.98;;;;;;;;;;2092921;28;20025;-60
2023/08/24 07:10:48;;;;;;;8.60;2.65;;;;;;;;;;2093855;28;20025;-59
2023/08/24 07:12:09;;;;;;;4.20;2.55;;;;;;;;;;2094117;28;20025;-59
2023/08/24 07:13:28;;;;;;;3.97;2.65;;;;;;;;;;2092639;28;20025;-60
2023/08/24 07:14:47;;;;;;;2.65;2.13;;;;;;;;;;2092390;28;20017;-59
2023/08/24 07:16:07;;;;;;;8.35;2.95;;;;;;;;;;2093793;28;20155;-59
2023/08/24 07:17:26;;;;;;;8.27;2.20;;;;;;;;;;2093409;28;20021;-59
2023/08/24 07:18:45;;;;;;;5.85;3.17;;;;;;;;;;2091499;28;20052;-64
2023/08/24 07:20:08;;;;;;;6.80;2.63;;;;;;;;;;2095394;28;20025;-59
2023/08/24 07:21:27;;;;;;;4.97;2.22;;;;;;;;;;2093609;28;20025;-60
2023/08/24 07:22:45;;;;;;;11.02;2.75;;;;;;;;;;2091678;28;20029;-60
2023/08/24 07:24:04;;;;;;;6.28;2.50;;;;;;;;;;2091496;28;20025;-60
2023/08/24 07:25:23;;;;;;;5.03;2.40;;;;;;;;;;2094053;28;20037;-60
2023/08/24 07:26:42;;;;;;;3.85;2.30;;;;;;;;;;2077757;28;20532;-59
2023/08/24 07:28:03;;;;;;;5.43;2.00;;;;;;;;;;2088811;28;20397;-60
2023/08/24 07:29:22;;;;;;;4.25;1.85;;;;;;;;;;2093652;28;20112;-60
2023/08/24 07:30:41;;;;;;;3.72;2.05;;;;;;;;;;2093811;28;20059;-61
2023/08/24 07:32:00;;;;;;;6.78;2.05;;;;;;;;;;2094390;28;20509;-62
2023/08/24 07:33:21;;;;;;;6.93;2.33;;;;;;;;;;2091545;28;20051;-60
2023/08/24 07:34:40;;;;;;;3.47;1.70;;;;;;;;;;2092917;28;20029;-60
2023/08/24 07:36:04;;;;;;;6.20;2.05;;;;;;;;;;2093232;28;20029;-60
2023/08/24 07:37:23;;;;;;;6.30;1.90;;;;;;;;;;2092731;28;20033;-61
2023/08/24 07:38:42;;;;;;;5.38;2.10;;;;;;;;;;2091850;28;20068;-60
2023/08/24 07:40:01;;;;;;;5.22;1.77;;;;;;;;;;2092864;28;20036;-60
2023/08/24 07:41:20;;;;;;;6.88;2.30;;;;;;;;;;2089501;28;20048;-60
2023/08/24 07:42:46;;;;;;;9.00;2.35;;;;;;;;;;2092250;28;20456;-60
2023/08/24 07:44:05;;;;;;;4.65;1.98;;;;;;;;;;2091627;28;20071;-61
2023/08/24 07:45:25;;;;;;;4.80;1.80;;;;;;;;;;2093000;28;20033;-61
2023/08/24 07:46:44;;;;;;;5.13;1.95;;;;;;;;;;2092595;28;20017;-60
2023/08/24 07:48:03;;;;;;;2.13;1.67;;;;;;;;;;2093233;28;20029;-62
2023/08/24 07:49:22;;;;;;;5.30;2.13;;;;;;;;;;2092609;28;20032;-61
2023/08/24 07:50:41;;;;;;;5.90;2.00;;;;;;;;;;2093096;28;20032;-62
2023/08/24 07:52:00;;;;;;;4.43;2.17;;;;;;;;;;2092970;28;20029;-60
2023/08/24 07:53:19;;;;;;;8.45;2.10;;;;;;;;;;2093225;28;20063;-60
2023/08/24 07:54:38;;;;;;;5.25;2.03;;;;;;;;;;2092919;28;20140;-61
2023/08/24 07:55:57;;;;;;;3.17;1.67;;;;;;;;;;2092337;28;20040;-60